sensor_id;sensor_type;location;lat;lon;timestamp;pressure;altitude;pressure_sealevel;temperature;humidity
20019;BME280;10170;42.502;26.526;2023-02-10T00:01:23;102020.25;;;-4.37;100.00
20019;BME280;10170;42.502;26.526;2023-02-10T00:03:50;102021.97;;;-4.36;100.00
20019;BME280;10170;42.502;26.526;2023-02-10T00:06:18;102011.63;;;-4.38;100.00
20019;BME280;10170;42.502;26.526;2023-02-10T00:08:47;102002.34;;;-4.20;100.00
20019;BME280;10170;42.502;26.526;2023-02-10T00:11:14;101984.72;;;-4.12;100.00
20019;BME280;10170;42.502;26.526;2023-02-10T00:13:43;101997.22;;;-3.98;100.00
20019;BME280;10170;42.502;26.526;2023-02-10T00:16:12;101997.09;;;-3.95;100.00
20019;BME280;10170;42.502;26.526;2023-02-10T00:18:39;101998.56;;;-3.88;100.00
20019;BME280;10170;42.502;26.526;2023-02-10T00:21:12;101997.16;;;-3.74;100.00
20019;BME280;10170;42.502;26.526;2023-02-10T00:23:40;101994.00;;;-3.37;100.00
20019;BME280;10170;42.502;26.526;2023-02-10T00:26:08;101989.41;;;-3.31;100.00
20019;BME280;10170;42.502;26.526;2023-02-10T00:28:35;101993.06;;;-3.58;100.00
20019;BME280;10170;42.502;26.526;2023-02-10T00:31:10;101989.09;;;-3.89;100.00
20019;BME280;10170;42.502;26.526;2023-02-10T00:33:38;101989.41;;;-4.21;100.00
20019;BME280;10170;42.502;26.526;2023-02-10T00:36:10;101988.56;;;-4.22;100.00
20019;BME280;10170;42.502;26.526;2023-02-10T00:38:38;101974.25;;;-4.34;100.00
20019;BME280;10170;42.502;26.526;2023-02-10T00:41:10;101980.97;;;-4.28;100.00
20019;BME280;10170;42.502;26.526;2023-02-10T00:43:37;101973.09;;;-4.02;100.00
20019;BME280;10170;42.502;26.526;2023-02-10T00:46:09;101966.44;;;-4.09;100.00
20019;BME280;10170;42.502;26.526;2023-02-10T00:48:38;101967.56;;;-4.16;100.00
20019;BME280;10170;42.502;26.526;2023-02-10T00:51:05;101970.66;;;-4.30;100.00
20019;BME280;10170;42.502;26.526;2023-02-10T00:53:32;101967.16;;;-4.28;100.00
20019;BME280;10170;42.502;26.526;2023-02-10T00:55:59;101966.47;;;-4.34;100.00
20019;BME280;10170;42.502;26.526;2023-02-10T00:58:26;101963.84;;;-4.32;100.00
20019;BME280;10170;42.502;26.526;2023-02-10T01:00:54;101959.72;;;-4.38;100.00
20019;BME280;10170;42.502;26.526;2023-02-10T01:03:22;101957.13;;;-4.38;100.00
20019;BME280;10170;42.502;26.526;2023-02-10T01:05:49;101945.56;;;-4.54;100.00
20019;BME280;10170;42.502;26.526;2023-02-10T01:08:16;101956.00;;;-4.55;100.00
20019;BME280;10170;42.502;26.526;2023-02-10T01:10:43;101961.66;;;-4.44;100.00
20019;BME280;10170;42.502;26.526;2023-02-10T01:13:12;101960.13;;;-4.50;100.00
20019;BME280;10170;42.502;26.526;2023-02-10T01:15:44;101951.28;;;-4.69;100.00
20019;BME280;10170;42.502;26.526;2023-02-10T01:18:12;101953.63;;;-4.61;100.00
20019;BME280;10170;42.502;26.526;2023-02-10T01:20:43;101957.19;;;-4.41;100.00
20019;BME280;10170;42.502;26.526;2023-02-10T01:23:10;101944.47;;;-4.23;100.00
20019;BME280;10170;42.502;26.526;2023-02-10T01:25:38;101944.53;;;-4.50;100.00
20019;BME280;10170;42.502;26.526;2023-02-10T01:28:06;101942.31;;;-4.60;100.00
20019;BME280;10170;42.502;26.526;2023-02-10T01:30:34;101864.59;;;-5.11;100.00
20019;BME280;10170;42.502;26.526;2023-02-10T01:33:01;101935.28;;;-4.57;100.00
20019;BME280;10170;42.502;26.526;2023-02-10T01:35:28;101947.03;;;-4.71;100.00
20019;BME280;10170;42.502;26.526;2023-02-10T01:37:55;101948.44;;;-4.61;100.00
20019;BME280;10170;42.502;26.526;2023-02-10T01:40:24;101929.44;;;-4.39;100.00
20019;BME280;10170;42.502;26.526;2023-02-10T01:42:51;101945.34;;;-4.48;100.00
20019;BME280;10170;42.502;26.526;2023-02-10T01:45:36;101947.88;;;-4.46;100.00
20019;BME280;10170;42.502;26.526;2023-02-10T01:48:05;101934.47;;;-4.34;100.00
20019;BME280;10170;42.502;26.526;2023-02-10T01:50:52;101937.00;;;-4.56;100.00
20019;BME280;10170;42.502;26.526;2023-02-10T01:53:20;101934.88;;;-4.69;100.00
20019;BME280;10170;42.502;26.526;2023-02-10T01:55:49;101936.97;;;-4.80;100.00
20019;BME280;10170;42.502;26.526;2023-02-10T01:58:20;101938.31;;;-4.93;100.00
20019;BME280;10170;42.502;26.526;2023-02-10T02:00:47;101941.53;;;-5.11;100.00
20019;BME280;10170;42.502;26.526;2023-02-10T02:03:14;101937.03;;;-5.06;100.00
20019;BME280;10170;42.502;26.526;2023-02-10T02:05:42;101931.28;;;-5.16;100.00
20019;BME280;10170;42.502;26.526;2023-02-10T02:08:29;101928.50;;;-5.36;100.00
20019;BME280;10170;42.502;26.526;2023-02-10T02:13:55;101928.88;;;-5.48;100.00
20019;BME280;10170;42.502;26.526;2023-02-10T02:32:37;101917.97;;;-5.58;100.00
20019;BME280;10170;42.502;26.526;2023-02-10T02:35:12;101914.75;;;-5.66;100.00
20019;BME280;10170;42.502;26.526;2023-02-10T02:37:43;101917.47;;;-5.69;100.00
20019;BME280;10170;42.502;26.526;2023-02-10T02:40:12;101907.06;;;-5.67;100.00
20019;BME280;10170;42.502;26.526;2023-02-10T02:42:39;101887.72;;;-5.83;100.00
20019;BME280;10170;42.502;26.526;2023-02-10T02:45:12;101908.94;;;-5.72;100.00
20019;BME280;10170;42.502;26.526;2023-02-10T02:48:04;101909.94;;;-5.76;100.00
20019;BME280;10170;42.502;26.526;2023-02-10T02:57:07;101905.97;;;-5.86;100.00
20019;BME280;10170;42.502;26.526;2023-02-10T02:59:36;101909.63;;;-5.93;100.00
20019;BME280;10170;42.502;26.526;2023-02-10T03:02:08;101898.50;;;-5.97;100.00
20019;BME280;10170;42.502;26.526;2023-02-10T03:04:38;101893.38;;;-5.98;100.00
20019;BME280;10170;42.502;26.526;2023-02-10T03:07:06;101895.47;;;-6.11;100.00
20019;BME280;10170;42.502;26.526;2023-02-10T03:09:33;101885.38;;;-6.18;100.00
20019;BME280;10170;42.502;26.526;2023-02-10T03:12:00;101913.03;;;-6.20;100.00
20019;BME280;10170;42.502;26.526;2023-02-10T03:14:27;101894.66;;;-6.40;100.00
20019;BME280;10170;42.502;26.526;2023-02-10T03:16:54;101908.84;;;-6.24;100.00
20019;BME280;10170;42.502;26.526;2023-02-10T03:19:21;101903.28;;;-6.12;100.00
20019;BME280;10170;42.502;26.526;2023-02-10T03:21:48;101901.72;;;-6.18;100.00
20019;BME280;10170;42.502;26.526;2023-02-10T03:24:15;101897.31;;;-6.14;100.00
20019;BME280;10170;42.502;26.526;2023-02-10T03:26:43;101897.31;;;-6.14;100.00
20019;BME280;10170;42.502;26.526;2023-02-10T03:29:11;101892.44;;;-6.25;100.00
20019;BME280;10170;42.502;26.526;2023-02-10T03:31:39;101895.34;;;-6.06;100.00
20019;BME280;10170;42.502;26.526;2023-02-10T03:34:06;101902.22;;;-6.05;100.00
20019;BME280;10170;42.502;26.526;2023-02-10T03:36:33;101897.78;;;-6.02;100.00
20019;BME280;10170;42.502;26.526;2023-02-10T03:39:02;101890.25;;;-6.09;100.00
20019;BME280;10170;42.502;26.526;2023-02-10T03:41:29;101900.00;;;-6.17;100.00
20019;BME280;10170;42.502;26.526;2023-02-10T03:43:56;101893.25;;;-6.23;100.00
20019;BME280;10170;42.502;26.526;2023-02-10T03:46:22;101901.19;;;-6.29;100.00
20019;BME280;10170;42.502;26.526;2023-02-10T03:48:49;101885.44;;;-6.21;100.00
20019;BME280;10170;42.502;26.526;2023-02-10T03:51:16;101900.16;;;-6.23;100.00
20019;BME280;10170;42.502;26.526;2023-02-10T03:53:43;101911.16;;;-6.15;100.00
20019;BME280;10170;42.502;26.526;2023-02-10T03:56:10;101907.38;;;-6.33;100.00
20019;BME280;10170;42.502;26.526;2023-02-10T03:58:37;101903.22;;;-6.38;100.00
20019;BME280;10170;42.502;26.526;2023-02-10T04:01:15;101904.78;;;-6.34;100.00
20019;BME280;10170;42.502;26.526;2023-02-10T04:03:43;101908.34;;;-6.37;100.00
20019;BME280;10170;42.502;26.526;2023-02-10T04:06:10;101901.44;;;-6.36;100.00
20019;BME280;10170;42.502;26.526;2023-02-10T04:08:38;101904.91;;;-6.37;100.00
20019;BME280;10170;42.502;26.526;2023-02-10T04:11:05;101896.44;;;-6.42;100.00
20019;BME280;10170;42.502;26.526;2023-02-10T04:13:34;101903.13;;;-6.35;100.00
20019;BME280;10170;42.502;26.526;2023-02-10T04:16:10;101882.00;;;-6.51;100.00
20019;BME280;10170;42.502;26.526;2023-02-10T04:18:37;101897.69;;;-6.26;100.00
20019;BME280;10170;42.502;26.526;2023-02-10T04:21:07;101892.78;;;-6.35;100.00
20019;BME280;10170;42.502;26.526;2023-02-10T04:23:34;101893.53;;;-6.32;100.00
20019;BME280;10170;42.502;26.526;2023-02-10T04:26:01;101887.75;;;-6.41;100.00
20019;BME280;10170;42.502;26.526;2023-02-10T04:28:28;101879.16;;;-6.42;100.00
20019;BME280;10170;42.502;26.526;2023-02-10T04:30:57;101894.38;;;-6.31;100.00
20019;BME280;10170;42.502;26.526;2023-02-10T04:33:25;101885.91;;;-6.36;100.00
20019;BME280;10170;42.502;26.526;2023-02-10T04:35:53;101889.19;;;-6.31;100.00
20019;BME280;10170;42.502;26.526;2023-02-10T04:38:21;101900.41;;;-6.31;100.00
20019;BME280;10170;42.502;26.526;2023-02-10T04:40:48;101894.28;;;-6.28;100.00
20019;BME280;10170;42.502;26.526;2023-02-10T04:43:15;101891.00;;;-6.33;100.00
20019;BME280;10170;42.502;26.526;2023-02-10T04:45:42;101889.47;;;-6.40;100.00
20019;BME280;10170;42.502;26.526;2023-02-10T04:48:09;101894.50;;;-6.36;100.00
20019;BME280;10170;42.502;26.526;2023-02-10T04:50:37;101893.66;;;-6.36;100.00
20019;BME280;10170;42.502;26.526;2023-02-10T04:53:04;101890.78;;;-6.26;100.00
20019;BME280;10170;42.502;26.526;2023-02-10T04:55:31;101884.16;;;-6.36;100.00
20019;BME280;10170;42.502;26.526;2023-02-10T04:57:57;101889.38;;;-6.37;100.00
20019;BME280;10170;42.502;26.526;2023-02-10T05:00:25;101893.88;;;-6.44;100.00
20019;BME280;10170;42.502;26.526;2023-02-10T05:02:52;101887.19;;;-6.51;100.00
20019;BME280;10170;42.502;26.526;2023-02-10T05:05:19;101897.19;;;-6.39;100.00
20019;BME280;10170;42.502;26.526;2023-02-10T05:07:46;101889.63;;;-6.47;100.00
20019;BME280;10170;42.502;26.526;2023-02-10T05:10:13;101888.56;;;-6.39;100.00
20019;BME280;10170;42.502;26.526;2023-02-10T05:12:40;101895.94;;;-6.26;100.00
20019;BME280;10170;42.502;26.526;2023-02-10T05:15:07;101889.09;;;-6.28;100.00
20019;BME280;10170;42.502;26.526;2023-02-10T05:17:34;101899.56;;;-6.31;100.00
20019;BME280;10170;42.502;26.526;2023-02-10T05:20:02;101862.69;;;-6.39;100.00
20019;BME280;10170;42.502;26.526;2023-02-10T05:22:29;101897.84;;;-6.32;100.00
20019;BME280;10170;42.502;26.526;2023-02-10T05:24:57;101904.03;;;-6.38;100.00
20019;BME280;10170;42.502;26.526;2023-02-10T05:27:24;101909.16;;;-6.35;100.00
20019;BME280;10170;42.502;26.526;2023-02-10T05:29:51;101903.63;;;-6.23;100.00
20019;BME280;10170;42.502;26.526;2023-02-10T05:32:18;101901.34;;;-6.33;100.00
20019;BME280;10170;42.502;26.526;2023-02-10T05:34:45;101912.31;;;-6.25;100.00
20019;BME280;10170;42.502;26.526;2023-02-10T05:37:11;101909.97;;;-6.33;100.00
20019;BME280;10170;42.502;26.526;2023-02-10T05:39:38;101919.53;;;-6.36;100.00
20019;BME280;10170;42.502;26.526;2023-02-10T05:42:06;101915.75;;;-6.25;100.00
20019;BME280;10170;42.502;26.526;2023-02-10T05:44:33;101907.31;;;-6.31;100.00
20019;BME280;10170;42.502;26.526;2023-02-10T05:47:00;101889.59;;;-6.45;100.00
20019;BME280;10170;42.502;26.526;2023-02-10T05:49:26;101896.44;;;-6.42;100.00
20019;BME280;10170;42.502;26.526;2023-02-10T05:51:53;101907.06;;;-6.22;100.00
20019;BME280;10170;42.502;26.526;2023-02-10T05:54:20;101907.88;;;-6.20;100.00
20019;BME280;10170;42.502;26.526;2023-02-10T05:56:47;101911.59;;;-6.01;100.00
20019;BME280;10170;42.502;26.526;2023-02-10T05:59:16;101909.00;;;-6.01;100.00
20019;BME280;10170;42.502;26.526;2023-02-10T06:01:43;101911.91;;;-6.12;100.00
20019;BME280;10170;42.502;26.526;2023-02-10T06:04:10;101917.91;;;-6.10;100.00
20019;BME280;10170;42.502;26.526;2023-02-10T06:06:37;101919.00;;;-5.89;100.00
20019;BME280;10170;42.502;26.526;2023-02-10T06:09:04;101914.50;;;-5.84;100.00
20019;BME280;10170;42.502;26.526;2023-02-10T06:11:31;101918.94;;;-5.88;100.00
20019;BME280;10170;42.502;26.526;2023-02-10T06:13:58;101916.88;;;-5.51;100.00
20019;BME280;10170;42.502;26.526;2023-02-10T06:16:25;101933.25;;;-5.50;100.00
20019;BME280;10170;42.502;26.526;2023-02-10T06:18:52;101923.13;;;-5.30;100.00
20019;BME280;10170;42.502;26.526;2023-02-10T06:21:19;101930.53;;;-4.93;100.00
20019;BME280;10170;42.502;26.526;2023-02-10T06:23:47;101931.25;;;-5.14;100.00
20019;BME280;10170;42.502;26.526;2023-02-10T06:26:14;101916.09;;;-5.02;100.00
20019;BME280;10170;42.502;26.526;2023-02-10T06:28:40;101927.09;;;-4.94;100.00
20019;BME280;10170;42.502;26.526;2023-02-10T06:31:07;101926.94;;;-4.65;100.00
20019;BME280;10170;42.502;26.526;2023-02-10T06:33:35;101909.59;;;-4.64;100.00
20019;BME280;10170;42.502;26.526;2023-02-10T06:36:03;101919.50;;;-4.51;100.00
20019;BME280;10170;42.502;26.526;2023-02-10T06:38:35;101926.44;;;-4.05;100.00
20019;BME280;10170;42.502;26.526;2023-02-10T06:41:03;101890.44;;;-3.69;100.00
20019;BME280;10170;42.502;26.526;2023-02-10T06:43:30;101904.78;;;-3.17;100.00
20019;BME280;10170;42.502;26.526;2023-02-10T06:45:57;101925.25;;;-2.90;100.00
20019;BME280;10170;42.502;26.526;2023-02-10T06:48:24;101923.03;;;-2.20;100.00
20019;BME280;10170;42.502;26.526;2023-02-10T06:50:50;101931.94;;;-2.05;100.00
20019;BME280;10170;42.502;26.526;2023-02-10T06:53:17;101928.34;;;-2.42;100.00
20019;BME280;10170;42.502;26.526;2023-02-10T06:55:44;101932.78;;;-2.44;100.00
20019;BME280;10170;42.502;26.526;2023-02-10T06:58:11;101933.97;;;-1.75;100.00
20019;BME280;10170;42.502;26.526;2023-02-10T07:00:38;101926.50;;;-1.11;100.00
20019;BME280;10170;42.502;26.526;2023-02-10T07:03:05;101939.09;;;-1.19;100.00
20019;BME280;10170;42.502;26.526;2023-02-10T07:05:32;101941.94;;;-0.89;100.00
20019;BME280;10170;42.502;26.526;2023-02-10T07:07:59;101922.16;;;-0.93;100.00
20019;BME280;10170;42.502;26.526;2023-02-10T07:10:26;101936.88;;;-0.58;100.00
20019;BME280;10170;42.502;26.526;2023-02-10T07:12:53;101933.38;;;-0.42;100.00
20019;BME280;10170;42.502;26.526;2023-02-10T07:15:23;101949.03;;;-0.25;100.00
20019;BME280;10170;42.502;26.526;2023-02-10T07:17:50;101937.88;;;0.51;100.00
20019;BME280;10170;42.502;26.526;2023-02-10T07:20:21;101949.16;;;-0.43;100.00
20019;BME280;10170;42.502;26.526;2023-02-10T07:22:48;101961.44;;;-1.14;100.00
20019;BME280;10170;42.502;26.526;2023-02-10T07:25:15;101955.00;;;-1.42;100.00
20019;BME280;10170;42.502;26.526;2023-02-10T07:27:41;101951.59;;;-1.80;100.00
20019;BME280;10170;42.502;26.526;2023-02-10T07:30:09;101949.91;;;-1.27;100.00
20019;BME280;10170;42.502;26.526;2023-02-10T07:32:36;101957.63;;;-0.72;100.00
20019;BME280;10170;42.502;26.526;2023-02-10T07:35:03;101958.44;;;-0.38;100.00
20019;BME280;10170;42.502;26.526;2023-02-10T07:37:30;101946.69;;;-0.14;100.00
20019;BME280;10170;42.502;26.526;2023-02-10T07:39:58;101935.84;;;0.56;100.00
20019;BME280;10170;42.502;26.526;2023-02-10T07:42:25;101949.19;;;1.13;92.27
20019;BME280;10170;42.502;26.526;2023-02-10T07:44:52;101940.16;;;0.26;98.89
20019;BME280;10170;42.502;26.526;2023-02-10T07:47:19;101937.91;;;1.40;88.13
20019;BME280;10170;42.502;26.526;2023-02-10T07:49:45;101934.28;;;1.57;82.40
20019;BME280;10170;42.502;26.526;2023-02-10T07:52:12;101938.13;;;0.31;87.79
20019;BME280;10170;42.502;26.526;2023-02-10T07:54:39;101922.72;;;0.72;88.04
20019;BME280;10170;42.502;26.526;2023-02-10T07:57:06;101930.94;;;0.66;85.05
20019;BME280;10170;42.502;26.526;2023-02-10T07:59:33;101935.47;;;0.78;87.23
20019;BME280;10170;42.502;26.526;2023-02-10T08:01:59;101934.94;;;1.46;79.93
20019;BME280;10170;42.502;26.526;2023-02-10T08:04:26;101934.34;;;1.27;79.44
20019;BME280;10170;42.502;26.526;2023-02-10T08:06:55;101928.91;;;0.71;80.16
20019;BME280;10170;42.502;26.526;2023-02-10T08:09:22;101932.63;;;0.20;88.35
20019;BME280;10170;42.502;26.526;2023-02-10T08:11:49;101939.50;;;0.07;90.79
20019;BME280;10170;42.502;26.526;2023-02-10T08:14:16;101917.22;;;0.31;93.19
20019;BME280;10170;42.502;26.526;2023-02-10T08:16:42;101923.22;;;1.08;88.86
20019;BME280;10170;42.502;26.526;2023-02-10T08:19:09;101927.53;;;0.95;80.50
20019;BME280;10170;42.502;26.526;2023-02-10T08:21:36;101929.97;;;0.37;86.66
20019;BME280;10170;42.502;26.526;2023-02-10T08:24:03;101923.47;;;-0.20;91.93
20019;BME280;10170;42.502;26.526;2023-02-10T08:26:29;101904.28;;;0.44;88.81
20019;BME280;10170;42.502;26.526;2023-02-10T08:28:56;101924.38;;;0.59;85.99
20019;BME280;10170;42.502;26.526;2023-02-10T08:31:26;101935.03;;;1.45;82.92
20019;BME280;10170;42.502;26.526;2023-02-10T08:33:53;101934.94;;;1.74;74.53
20019;BME280;10170;42.502;26.526;2023-02-10T08:36:21;101929.63;;;2.45;74.76
20019;BME280;10170;42.502;26.526;2023-02-10T08:38:48;101927.03;;;2.31;70.00
20019;BME280;10170;42.502;26.526;2023-02-10T08:41:16;101924.25;;;1.63;70.59
20019;BME280;10170;42.502;26.526;2023-02-10T08:43:42;101920.66;;;2.21;72.12
20019;BME280;10170;42.502;26.526;2023-02-10T08:46:10;101926.69;;;2.49;68.26
20019;BME280;10170;42.502;26.526;2023-02-10T08:48:37;101916.44;;;2.59;69.37
20019;BME280;10170;42.502;26.526;2023-02-10T08:51:09;101912.44;;;3.32;67.37
20019;BME280;10170;42.502;26.526;2023-02-10T08:53:36;101900.41;;;3.15;66.31
20019;BME280;10170;42.502;26.526;2023-02-10T08:56:06;101904.84;;;3.52;65.33
20019;BME280;10170;42.502;26.526;2023-02-10T08:58:34;101916.25;;;4.26;63.70
20019;BME280;10170;42.502;26.526;2023-02-10T09:01:07;101897.06;;;4.48;62.04
20019;BME280;10170;42.502;26.526;2023-02-10T09:03:33;101904.22;;;4.59;60.21
20019;BME280;10170;42.502;26.526;2023-02-10T09:06:00;101908.34;;;4.26;61.09
20019;BME280;10170;42.502;26.526;2023-02-10T09:08:27;101914.31;;;3.92;62.83
20019;BME280;10170;42.502;26.526;2023-02-10T09:10:53;101898.53;;;3.92;63.36
20019;BME280;10170;42.502;26.526;2023-02-10T09:13:20;101900.00;;;4.20;62.23
20019;BME280;10170;42.502;26.526;2023-02-10T09:15:50;101906.28;;;5.01;60.07
20019;BME280;10170;42.502;26.526;2023-02-10T09:18:17;101894.38;;;5.19;59.14
20019;BME280;10170;42.502;26.526;2023-02-10T09:20:44;101895.66;;;6.14;58.74
20019;BME280;10170;42.502;26.526;2023-02-10T09:23:10;101895.97;;;6.43;57.90
20019;BME280;10170;42.502;26.526;2023-02-10T09:25:37;101895.25;;;5.42;56.98
20019;BME280;10170;42.502;26.526;2023-02-10T09:28:04;101886.16;;;5.68;57.42
20019;BME280;10170;42.502;26.526;2023-02-10T09:30:31;101881.34;;;5.62;57.26
20019;BME280;10170;42.502;26.526;2023-02-10T09:32:57;101878.69;;;5.39;57.52
20019;BME280;10170;42.502;26.526;2023-02-10T09:35:24;101873.69;;;5.48;58.71
20019;BME280;10170;42.502;26.526;2023-02-10T09:37:51;101875.09;;;4.84;59.18
20019;BME280;10170;42.502;26.526;2023-02-10T09:40:23;101871.19;;;5.90;59.76
20019;BME280;10170;42.502;26.526;2023-02-10T09:43:13;101864.28;;;6.32;57.04
20019;BME280;10170;42.502;26.526;2023-02-10T09:45:46;101865.06;;;5.90;56.60
20019;BME280;10170;42.502;26.526;2023-02-10T09:50:59;101860.97;;;5.53;59.59
20019;BME280;10170;42.502;26.526;2023-02-10T09:53:31;101852.72;;;5.68;60.12
20019;BME280;10170;42.502;26.526;2023-02-10T09:56:01;101850.09;;;6.33;59.17
20019;BME280;10170;42.502;26.526;2023-02-10T09:58:53;101845.56;;;6.67;57.01
20019;BME280;10170;42.502;26.526;2023-02-10T10:01:30;101832.06;;;7.31;55.99
20019;BME280;10170;42.502;26.526;2023-02-10T10:04:07;101832.53;;;7.16;56.34
20019;BME280;10170;42.502;26.526;2023-02-10T10:06:37;101818.53;;;7.55;54.05
20019;BME280;10170;42.502;26.526;2023-02-10T10:11:55;101807.19;;;7.13;54.15
20019;BME280;10170;42.502;26.526;2023-02-10T10:14:33;101799.63;;;6.68;57.30
20019;BME280;10170;42.502;26.526;2023-02-10T10:19:59;101795.06;;;7.11;54.58
20019;BME280;10170;42.502;26.526;2023-02-10T10:31:27;101784.41;;;8.20;51.81
20019;BME280;10170;42.502;26.526;2023-02-10T10:34:00;101778.56;;;7.28;52.46
20019;BME280;10170;42.502;26.526;2023-02-10T10:36:52;101778.66;;;8.06;52.11
20019;BME280;10170;42.502;26.526;2023-02-10T10:42:01;101759.16;;;6.88;53.83
20019;BME280;10170;42.502;26.526;2023-02-10T10:44:30;101783.84;;;6.98;55.69
20019;BME280;10170;42.502;26.526;2023-02-10T10:47:46;101765.47;;;8.44;52.49
20019;BME280;10170;42.502;26.526;2023-02-10T10:50:17;101762.06;;;7.85;51.51
20019;BME280;10170;42.502;26.526;2023-02-10T10:52:46;101764.03;;;7.92;53.93
20019;BME280;10170;42.502;26.526;2023-02-10T10:55:39;101756.44;;;6.99;55.62
20019;BME280;10170;42.502;26.526;2023-02-10T11:00:52;101749.91;;;7.33;53.40
20019;BME280;10170;42.502;26.526;2023-02-10T11:03:20;101747.59;;;7.19;53.14
20019;BME280;10170;42.502;26.526;2023-02-10T11:06:19;101750.91;;;8.19;51.21
20019;BME280;10170;42.502;26.526;2023-02-10T11:08:54;101738.13;;;8.43;53.28
20019;BME280;10170;42.502;26.526;2023-02-10T11:11:40;101743.97;;;7.50;54.73
20019;BME280;10170;42.502;26.526;2023-02-10T11:17:15;101729.88;;;9.12;50.41
20019;BME280;10170;42.502;26.526;2023-02-10T11:19:35;101738.34;;;7.83;52.24
20019;BME280;10170;42.502;26.526;2023-02-10T11:22:16;101716.06;;;6.76;51.75
20019;BME280;10170;42.502;26.526;2023-02-10T11:24:53;101727.84;;;7.23;52.47
20019;BME280;10170;42.502;26.526;2023-02-10T11:27:21;101714.66;;;8.58;51.21
20019;BME280;10170;42.502;26.526;2023-02-10T11:29:58;101707.88;;;8.46;49.87
20019;BME280;10170;42.502;26.526;2023-02-10T11:32:28;101715.47;;;8.68;49.66
20019;BME280;10170;42.502;26.526;2023-02-10T11:34:57;101715.00;;;7.09;50.45
20019;BME280;10170;42.502;26.526;2023-02-10T11:37:31;101717.81;;;7.17;52.80
20019;BME280;10170;42.502;26.526;2023-02-10T11:40:00;101715.66;;;8.38;50.94
20019;BME280;10170;42.502;26.526;2023-02-10T11:42:33;101710.09;;;8.31;50.06
20019;BME280;10170;42.502;26.526;2023-02-10T11:45:25;101705.81;;;7.53;50.13
20019;BME280;10170;42.502;26.526;2023-02-10T11:48:17;101702.69;;;8.25;50.39
20019;BME280;10170;42.502;26.526;2023-02-10T11:50:45;101692.91;;;7.88;51.09
20019;BME280;10170;42.502;26.526;2023-02-10T11:53:24;101692.34;;;8.13;51.51
20019;BME280;10170;42.502;26.526;2023-02-10T11:58:44;101688.09;;;8.77;49.37
20019;BME280;10170;42.502;26.526;2023-02-10T12:01:47;101684.41;;;8.41;49.69
20019;BME280;10170;42.502;26.526;2023-02-10T12:10:07;101675.06;;;8.47;47.49
20019;BME280;10170;42.502;26.526;2023-02-10T12:12:46;101678.66;;;8.65;47.40
20019;BME280;10170;42.502;26.526;2023-02-10T12:23:46;101663.41;;;7.33;49.68
20019;BME280;10170;42.502;26.526;2023-02-10T12:40:35;101656.44;;;9.12;46.15
20019;BME280;10170;42.502;26.526;2023-02-10T12:57:25;101647.69;;;7.51;46.96
20019;BME280;10170;42.502;26.526;2023-02-10T13:00:09;101655.00;;;7.78;46.87
20019;BME280;10170;42.502;26.526;2023-02-10T13:02:52;101644.06;;;9.21;44.98
20019;BME280;10170;42.502;26.526;2023-02-10T13:05:43;101636.47;;;9.71;43.73
20019;BME280;10170;42.502;26.526;2023-02-10T13:08:18;101631.78;;;10.00;42.97
20019;BME280;10170;42.502;26.526;2023-02-10T13:10:48;101633.50;;;10.26;42.56
20019;BME280;10170;42.502;26.526;2023-02-10T13:13:25;101632.97;;;9.08;43.67
20019;BME280;10170;42.502;26.526;2023-02-10T13:18:30;101635.19;;;9.57;43.92
20019;BME280;10170;42.502;26.526;2023-02-10T13:21:17;101635.72;;;9.16;44.18
20019;BME280;10170;42.502;26.526;2023-02-10T13:24:10;101637.44;;;7.96;45.65
20019;BME280;10170;42.502;26.526;2023-02-10T13:35:06;101627.00;;;5.74;49.68
20019;BME280;10170;42.502;26.526;2023-02-10T13:37:44;101644.28;;;5.46;50.79
20019;BME280;10170;42.502;26.526;2023-02-10T13:40:20;101641.75;;;5.56;50.98
20019;BME280;10170;42.502;26.526;2023-02-10T13:42:54;101618.31;;;5.94;50.64
20019;BME280;10170;42.502;26.526;2023-02-10T13:45:25;101630.00;;;6.12;50.79
20019;BME280;10170;42.502;26.526;2023-02-10T13:48:02;101615.00;;;5.49;51.49
20019;BME280;10170;42.502;26.526;2023-02-10T13:50:51;101634.13;;;5.30;51.73
20019;BME280;10170;42.502;26.526;2023-02-10T13:59:03;101631.91;;;4.71;53.86
20019;BME280;10170;42.502;26.526;2023-02-10T14:01:37;101640.41;;;4.63;54.26
20019;BME280;10170;42.502;26.526;2023-02-10T14:04:39;101633.81;;;4.58;53.72
20019;BME280;10170;42.502;26.526;2023-02-10T14:07:35;101629.72;;;4.32;54.32
20019;BME280;10170;42.502;26.526;2023-02-10T14:13:20;101621.81;;;4.54;53.67
20019;BME280;10170;42.502;26.526;2023-02-10T14:16:06;101621.94;;;4.41;54.33
20019;BME280;10170;42.502;26.526;2023-02-10T14:18:38;101615.47;;;4.45;54.50
20019;BME280;10170;42.502;26.526;2023-02-10T14:21:12;101619.91;;;4.56;53.74
20019;BME280;10170;42.502;26.526;2023-02-10T14:23:50;101620.75;;;4.56;53.59
20019;BME280;10170;42.502;26.526;2023-02-10T14:26:20;101622.91;;;4.51;54.09
20019;BME280;10170;42.502;26.526;2023-02-10T14:28:50;101609.03;;;4.71;53.52
20019;BME280;10170;42.502;26.526;2023-02-10T14:31:40;101613.81;;;4.55;53.63
20019;BME280;10170;42.502;26.526;2023-02-10T14:34:27;101622.22;;;4.60;53.86
20019;BME280;10170;42.502;26.526;2023-02-10T14:39:27;101616.44;;;4.77;53.08
20019;BME280;10170;42.502;26.526;2023-02-10T14:41:57;101621.13;;;4.85;53.25
20019;BME280;10170;42.502;26.526;2023-02-10T14:44:38;101618.59;;;4.61;53.71
20019;BME280;10170;42.502;26.526;2023-02-10T14:49:43;101627.94;;;4.54;54.30
20019;BME280;10170;42.502;26.526;2023-02-10T14:57:49;101606.50;;;4.37;54.32
20019;BME280;10170;42.502;26.526;2023-02-10T15:00:16;101619.81;;;4.46;54.93
20019;BME280;10170;42.502;26.526;2023-02-10T15:02:55;101623.38;;;4.45;54.48